1II7 weather

Parkview Memorial Hospital Heliport
Fort Wayne, Indiana, United States

Public forecast

Using degrees Fahrenheit for public forecast. Weather courtesy of forecast.io.

METAR (pilot weather report)

Closest report is Fort Wayne International Airport, 8.1 nm (14.9 km) SSW. Retrieved 2019/04/24 08:54 UTC (1 hour ago):

KFWA 240854Z 36003KT 10SM BKN250 06/03 A3001 RMK AO2 SLP165 T00560033 56004

TAF (pilot weather forecast)

Closest forecast is Fort Wayne International Airport, 8.1 nm (14.9 km) SSW. Retrieved 2019/04/24 06:24 UTC (4 hours ago):

TAF KFWA 240521Z 2406/2506 31004KT P6SM BKN250 FM250000 12003KT P6SM BKN045